Terminal Aerodrome Forecast
Issued by NWS Wilmington, NC

Home | Current Version | Previous Version | Text Only | Print | Product List | Glossary On
Versions: 1 2 3 4 5 6 7 8 9 10 11 12 13 14 15
000
FTUS42 KILM 270500
TAFILM
TAF
KILM 270537Z 2706/2806 31011G19KT P6SM SCT010 BKN025
      TEMPO 2707/2711 5SM -SHRA BKN010
     FM271500 32011KT P6SM FEW015 SCT025 SCT050
     FM272200 30007KT P6SM FEW050
     FM280200 VRB03KT P6SM SKC=

USA.gov is the U.S. government's official web portal to all federal, state and local government web resources and services.